createdAt,value
2018-09-17T00:00:41.098Z,99.99
2018-09-17T00:01:49.739Z,99.99
2018-09-17T00:02:58.382Z,99.99
2018-09-17T00:04:07.022Z,99.99
2018-09-17T00:05:15.662Z,99.99
2018-09-17T00:06:24.309Z,99.99
2018-09-17T00:07:32.952Z,99.99
2018-09-17T00:08:41.595Z,99.99
2018-09-17T00:09:50.237Z,99.99
2018-09-17T00:10:58.881Z,99.99
2018-09-17T00:12:07.525Z,99.99
2018-09-17T00:13:16.168Z,99.99
2018-09-17T00:14:24.808Z,99.99
2018-09-17T00:15:33.459Z,99.99
2018-09-17T00:16:42.363Z,99.99
2018-09-17T00:17:51.008Z,99.99
2018-09-17T00:18:59.913Z,99.99
2018-09-17T00:20:08.560Z,99.99
2018-09-17T00:21:17.202Z,99.99
2018-09-17T00:22:25.852Z,99.99
2018-09-17T00:23:34.497Z,99.99
2018-09-17T00:24:43.157Z,99.99
2018-09-17T00:25:51.774Z,99.99
2018-09-17T00:27:00.412Z,99.99
2018-09-17T00:28:09.063Z,99.99
2018-09-17T00:29:17.697Z,99.99
2018-09-17T00:30:26.349Z,99.99
2018-09-17T00:31:34.982Z,99.99
2018-09-17T00:32:43.635Z,99.99
2018-09-17T00:33:52.270Z,99.99
2018-09-17T00:35:00.913Z,99.99
2018-09-17T00:36:09.553Z,99.99
2018-09-17T00:37:18.206Z,99.99
2018-09-17T00:38:26.848Z,99.99
2018-09-17T00:39:35.485Z,99.99
2018-09-17T00:40:44.391Z,99.99
2018-09-17T00:41:53.029Z,99.99
2018-09-17T00:43:01.946Z,99.99
2018-09-17T00:44:10.586Z,99.99
2018-09-17T00:45:19.499Z,99.99
2018-09-17T00:46:28.394Z,99.99
2018-09-17T00:47:37.046Z,99.99
2018-09-17T00:48:45.684Z,99.99
2018-09-17T00:49:54.331Z,99.99
2018-09-17T00:51:02.964Z,99.99
2018-09-17T00:52:11.616Z,99.99
2018-09-17T00:53:20.527Z,99.99
2018-09-17T00:54:29.437Z,99.99
2018-09-17T00:55:38.334Z,99.99
2018-09-17T00:56:47.296Z,99.99
2018-09-17T00:57:55.936Z,99.99
2018-09-17T00:59:04.536Z,99.99
2018-09-17T01:00:13.183Z,99.99
2018-09-17T01:01:21.812Z,99.99
2018-09-17T01:02:30.725Z,99.99
2018-09-17T01:03:39.368Z,99.99
2018-09-17T01:04:48.020Z,99.99
2018-09-17T01:05:56.655Z,99.99
2018-09-17T01:07:05.302Z,99.99
2018-09-17T01:08:13.940Z,99.99
2018-09-17T01:09:22.591Z,99.99
2018-09-17T01:10:31.224Z,99.99
2018-09-17T01:11:39.869Z,99.99
2018-09-17T01:12:48.509Z,99.99
2018-09-17T01:13:57.160Z,99.99
2018-09-17T01:15:06.063Z,99.99
2018-09-17T01:16:14.971Z,99.99
2018-09-17T01:17:23.611Z,99.99
2018-09-17T01:18:32.248Z,99.99
2018-09-17T01:19:40.902Z,99.99
2018-09-17T01:20:49.801Z,99.99
2018-09-17T01:21:58.440Z,99.99
2018-09-17T01:23:07.091Z,99.99
2018-09-17T01:24:15.719Z,99.99
2018-09-17T01:25:24.365Z,99.99
2018-09-17T01:26:33.006Z,99.99
2018-09-17T01:27:41.656Z,99.99
2018-09-17T01:28:50.289Z,99.99
2018-09-17T01:29:58.939Z,99.99
2018-09-17T01:31:07.578Z,99.99
2018-09-17T01:32:16.230Z,99.99
2018-09-17T01:33:24.870Z,99.99
2018-09-17T01:34:33.507Z,99.99
2018-09-17T01:35:42.145Z,99.99
2018-09-17T01:36:51.049Z,99.99
2018-09-17T01:37:59.699Z,99.99
2018-09-17T01:39:08.601Z,99.99
2018-09-17T01:40:17.250Z,99.99
2018-09-17T01:41:25.886Z,99.99
2018-09-17T01:42:34.535Z,99.99
2018-09-17T01:43:43.440Z,99.99
2018-09-17T01:44:52.362Z,99.99
2018-09-17T01:46:00.997Z,99.99
2018-09-17T01:47:09.922Z,99.99
2018-09-17T01:48:18.562Z,99.99
2018-09-17T01:49:27.496Z,99.99
2018-09-17T01:50:36.117Z,99.99
2018-09-17T01:51:44.761Z,99.99
2018-09-17T01:52:53.410Z,99.99
2018-09-17T01:54:02.315Z,99.99
2018-09-17T01:55:10.959Z,99.99
2018-09-17T01:56:19.594Z,99.99
2018-09-17T01:57:28.242Z,99.99
2018-09-17T01:58:36.878Z,99.99
2018-09-17T01:59:45.530Z,99.99
2018-09-17T02:00:54.424Z,99.99
2018-09-17T02:02:03.070Z,99.99
2018-09-17T02:03:11.709Z,99.99
2018-09-17T02:04:20.361Z,99.99
2018-09-17T02:05:28.998Z,99.99
2018-09-17T02:06:37.640Z,99.99
2018-09-17T02:07:46.281Z,99.99
2018-09-17T02:08:55.007Z,99.99
2018-09-17T02:10:04.018Z,99.99
2018-09-17T02:11:12.576Z,99.99
2018-09-17T02:12:21.482Z,99.99
2018-09-17T02:13:30.658Z,99.99
2018-09-17T02:14:39.574Z,99.99
2018-09-17T02:15:48.210Z,99.99
2018-09-17T02:16:56.856Z,99.99
2018-09-17T02:18:05.490Z,99.99
2018-09-17T02:19:14.138Z,99.99
2018-09-17T02:20:22.779Z,99.99
2018-09-17T02:21:31.422Z,99.99
2018-09-17T02:22:40.061Z,99.99
2018-09-17T02:23:48.710Z,99.99
2018-09-17T02:24:57.349Z,99.99
2018-09-17T02:26:06.256Z,99.99
2018-09-17T02:27:14.893Z,99.99
2018-09-17T02:28:23.537Z,99.99
2018-09-17T02:29:32.178Z,99.99
2018-09-17T02:30:40.826Z,99.99
2018-09-17T02:31:49.467Z,99.99
2018-09-17T02:32:58.113Z,99.99
2018-09-17T02:34:06.756Z,99.99
2018-09-17T02:35:15.397Z,99.99
2018-09-17T02:36:24.046Z,99.99
2018-09-17T02:37:32.683Z,99.99
2018-09-17T02:38:41.325Z,99.99
2018-09-17T02:39:49.969Z,99.99
2018-09-17T02:40:58.623Z,99.99
2018-09-17T02:42:07.521Z,99.99
2018-09-17T02:43:16.170Z,99.99
2018-09-17T02:44:25.070Z,99.99
2018-09-17T02:45:33.720Z,99.99
2018-09-17T02:46:42.359Z,99.99
2018-09-17T02:47:51.270Z,99.99
2018-09-17T02:49:00.170Z,99.99
2018-09-17T02:50:09.078Z,99.99
2018-09-17T02:51:17.733Z,99.99
2018-09-17T02:52:26.382Z,99.99
2018-09-17T02:53:35.098Z,99.99
2018-09-17T02:54:43.668Z,99.99
2018-09-17T02:55:52.314Z,99.99
2018-09-17T02:57:00.957Z,99.99
2018-09-17T02:58:09.604Z,99.99
2018-09-17T02:59:18.244Z,99.99
2018-09-17T03:00:26.895Z,99.99
2018-09-17T03:01:35.546Z,99.99
2018-09-17T03:02:44.190Z,99.99
2018-09-17T03:03:52.834Z,99.99
2018-09-17T03:05:01.480Z,99.99
2018-09-17T03:06:10.121Z,99.99
2018-09-17T03:07:18.767Z,99.99
2018-09-17T03:08:27.417Z,99.99
2018-09-17T03:09:36.056Z,99.99
2018-09-17T03:10:44.961Z,99.99
2018-09-17T03:11:53.612Z,99.99
2018-09-17T03:13:02.260Z,99.99
2018-09-17T03:14:10.906Z,99.99
2018-09-17T03:15:19.553Z,99.99
2018-09-17T03:16:28.467Z,99.99
2018-09-17T03:17:37.386Z,99.99
2018-09-17T03:18:46.024Z,99.99
2018-09-17T03:19:54.666Z,99.99
2018-09-17T03:21:03.312Z,99.99
2018-09-17T03:22:12.239Z,99.99
2018-09-17T03:23:20.873Z,99.99
2018-09-17T03:24:29.611Z,99.99
2018-09-17T03:25:38.442Z,99.99
2018-09-17T03:26:47.368Z,99.99
2018-09-17T03:27:56.021Z,99.99
2018-09-17T03:29:04.667Z,99.99
2018-09-17T03:30:13.313Z,99.99
2018-09-17T03:31:21.961Z,99.99
2018-09-17T03:32:31.163Z,99.99
2018-09-17T03:33:39.809Z,99.99
2018-09-17T03:34:48.461Z,99.99
2018-09-17T03:35:57.357Z,99.99
2018-09-17T03:37:06.009Z,99.99
2018-09-17T03:38:14.655Z,99.99
2018-09-17T03:39:23.307Z,99.99
2018-09-17T03:40:31.942Z,99.99
2018-09-17T03:41:40.596Z,99.99
2018-09-17T03:42:49.509Z,99.99
2018-09-17T03:43:58.160Z,99.99
2018-09-17T03:45:07.070Z,99.99
2018-09-17T03:46:15.752Z,99.99
2018-09-17T03:47:24.350Z,99.99
2018-09-17T03:48:32.992Z,99.99
2018-09-17T03:49:41.643Z,99.99
2018-09-17T03:50:50.279Z,99.99
2018-09-17T03:51:58.930Z,99.99
2018-09-17T03:53:07.571Z,99.99
2018-09-17T03:54:16.220Z,99.99
2018-09-17T03:55:24.858Z,99.99
2018-09-17T03:56:33.499Z,99.99
2018-09-17T03:57:42.139Z,99.99
2018-09-17T03:58:50.789Z,99.99
2018-09-17T03:59:59.428Z,99.99
2018-09-17T04:01:08.071Z,99.99
2018-09-17T04:02:16.711Z,99.99
2018-09-17T04:03:25.367Z,99.99
2018-09-17T04:04:34.279Z,99.99
2018-09-17T04:05:42.916Z,99.99
2018-09-17T04:06:51.565Z,99.99
2018-09-17T04:08:00.462Z,99.99
2018-09-17T04:09:09.141Z,99.99
2018-09-17T04:10:17.749Z,99.99
2018-09-17T04:11:26.399Z,99.99
2018-09-17T04:12:35.031Z,99.99
2018-09-17T04:13:43.948Z,99.99
2018-09-17T04:14:52.589Z,99.99
2018-09-17T04:16:01.229Z,99.99
2018-09-17T04:17:10.129Z,99.99
2018-09-17T04:18:18.773Z,99.99
2018-09-17T04:19:27.417Z,99.99
2018-09-17T04:20:36.065Z,99.99
2018-09-17T04:21:44.710Z,99.99
2018-09-17T04:22:53.606Z,99.99
2018-09-17T04:24:02.251Z,99.99
2018-09-17T04:25:11.157Z,99.99
2018-09-17T04:26:19.903Z,99.99
2018-09-17T04:27:28.802Z,99.99
2018-09-17T04:28:37.444Z,99.99
2018-09-17T04:29:46.092Z,99.99
2018-09-17T04:30:54.733Z,99.99
2018-09-17T04:32:03.631Z,99.99
2018-09-17T04:33:12.285Z,99.99
2018-09-17T04:34:20.924Z,99.99
2018-09-17T04:35:29.562Z,99.99
2018-09-17T04:36:38.206Z,99.99
2018-09-17T04:37:46.849Z,99.99
2018-09-17T04:38:55.491Z,99.99
2018-09-17T04:40:04.128Z,99.99
2018-09-17T04:41:12.778Z,99.99
2018-09-17T04:42:21.420Z,99.99
2018-09-17T04:43:30.334Z,99.99
2018-09-17T04:44:38.972Z,99.99
2018-09-17T04:45:47.621Z,99.99
2018-09-17T04:46:56.524Z,99.99
2018-09-17T04:48:05.169Z,99.99
2018-09-17T04:49:13.803Z,99.99
2018-09-17T04:50:22.451Z,99.99
2018-09-17T04:51:31.090Z,99.99
2018-09-17T04:52:39.735Z,99.99
2018-09-17T04:53:48.370Z,99.99
2018-09-17T04:54:57.017Z,99.99
2018-09-17T04:56:05.652Z,99.99
2018-09-17T04:57:14.303Z,99.99
2018-09-17T04:58:22.944Z,99.99
2018-09-17T04:59:31.848Z,99.99
2018-09-17T05:00:40.489Z,99.99
2018-09-17T05:01:49.134Z,99.99
2018-09-17T05:02:58.039Z,99.99
2018-09-17T05:04:06.939Z,99.99
2018-09-17T05:05:15.584Z,99.99
2018-09-17T05:06:24.226Z,99.99
2018-09-17T05:07:33.135Z,99.99
2018-09-17T05:08:41.774Z,99.99
2018-09-17T05:09:50.419Z,99.99
2018-09-17T05:10:59.062Z,99.99
2018-09-17T05:12:07.709Z,99.99
2018-09-17T05:13:16.445Z,99.99
2018-09-17T05:14:25.528Z,99.99
2018-09-17T05:15:34.170Z,99.99
2018-09-17T05:16:43.083Z,99.99
2018-09-17T05:17:52.154Z,99.99
2018-09-17T05:19:01.316Z,99.99
2018-09-17T05:20:09.963Z,99.99
2018-09-17T05:21:18.609Z,99.99
2018-09-17T05:22:27.245Z,99.99
2018-09-17T05:23:35.888Z,99.99
2018-09-17T05:24:44.531Z,99.99
2018-09-17T05:25:53.179Z,99.99
2018-09-17T05:27:01.815Z,99.99
2018-09-17T05:28:10.466Z,99.99
2018-09-17T05:29:19.372Z,99.99
2018-09-17T05:30:28.024Z,99.99
2018-09-17T05:31:36.926Z,99.99
2018-09-17T05:32:45.568Z,99.99
2018-09-17T05:33:54.209Z,99.99
2018-09-17T05:35:02.912Z,99.99
2018-09-17T05:36:11.888Z,99.99
2018-09-17T05:37:21.061Z,99.99
2018-09-17T05:38:29.703Z,99.99
2018-09-17T05:39:38.340Z,99.99
2018-09-17T05:40:46.990Z,99.99
2018-09-17T05:41:55.638Z,99.99
2018-09-17T05:43:04.277Z,99.99
2018-09-17T05:44:12.916Z,99.99
2018-09-17T05:45:21.848Z,99.99
2018-09-17T05:46:30.491Z,99.99
2018-09-17T05:47:39.134Z,99.99
2018-09-17T05:48:47.782Z,99.99
2018-09-17T05:49:57.082Z,99.99
2018-09-17T05:51:05.723Z,99.99
2018-09-17T05:52:14.369Z,99.99
2018-09-17T05:53:23.013Z,99.99
2018-09-17T05:54:31.654Z,99.99
2018-09-17T05:55:40.296Z,99.99
2018-09-17T05:56:49.199Z,99.99
2018-09-17T05:57:57.849Z,99.99
2018-09-17T05:59:06.487Z,99.99
2018-09-17T06:00:15.129Z,99.99
2018-09-17T06:01:23.769Z,99.99
2018-09-17T06:02:32.415Z,99.99
2018-09-17T06:03:41.054Z,99.99
2018-09-17T06:04:49.697Z,99.99
2018-09-17T06:05:58.355Z,99.99
2018-09-17T06:07:07.046Z,99.99
2018-09-17T06:08:15.625Z,99.99
2018-09-17T06:09:24.274Z,99.99
2018-09-17T06:10:32.910Z,99.99
2018-09-17T06:11:41.604Z,99.99
2018-09-17T06:12:50.537Z,99.99
2018-09-17T06:13:59.181Z,99.99
2018-09-17T06:15:07.829Z,99.99
2018-09-17T06:16:16.467Z,99.99
2018-09-17T06:17:25.507Z,99.99
2018-09-17T06:18:34.444Z,99.99
2018-09-17T06:19:43.359Z,99.99
2018-09-17T06:20:51.995Z,99.99
2018-09-17T06:22:00.646Z,99.99
2018-09-17T06:23:09.325Z,99.99
2018-09-17T06:24:17.930Z,99.99
2018-09-17T06:25:26.563Z,99.99
2018-09-17T06:26:35.274Z,99.99
2018-09-17T06:27:43.857Z,99.99
2018-09-17T06:28:52.851Z,99.99
2018-09-17T06:30:01.789Z,99.99
2018-09-17T06:31:10.685Z,99.99
2018-09-17T06:32:19.331Z,99.99
2018-09-17T06:33:27.969Z,99.99
2018-09-17T06:34:36.622Z,99.99
2018-09-17T06:35:45.255Z,99.99
2018-09-17T06:36:53.906Z,99.99
2018-09-17T06:38:02.538Z,99.99
2018-09-17T06:39:11.191Z,99.99
2018-09-17T06:40:19.824Z,99.99
2018-09-17T06:41:28.536Z,99.99
2018-09-17T06:42:37.489Z,99.99
2018-09-17T06:43:46.135Z,99.99
2018-09-17T06:44:54.784Z,99.99
2018-09-17T06:46:03.413Z,99.99
2018-09-17T06:47:12.054Z,99.99
2018-09-17T06:48:20.972Z,99.99
2018-09-17T06:49:29.624Z,99.99
2018-09-17T06:50:38.263Z,99.99
2018-09-17T06:51:47.171Z,99.99
2018-09-17T06:52:55.804Z,99.99
2018-09-17T06:54:04.459Z,99.99
2018-09-17T06:55:13.364Z,99.99
2018-09-17T06:56:22.013Z,99.99
2018-09-17T06:57:30.650Z,99.99
2018-09-17T06:58:39.309Z,99.99
2018-09-17T06:59:47.946Z,99.99
2018-09-17T07:00:56.593Z,99.99
2018-09-17T07:02:05.231Z,99.99
2018-09-17T07:03:14.140Z,99.99
2018-09-17T07:04:23.049Z,99.99
2018-09-17T07:05:31.698Z,99.99
2018-09-17T07:06:40.604Z,99.99
2018-09-17T07:07:49.239Z,99.99
2018-09-17T07:08:57.897Z,99.99
2018-09-17T07:10:06.540Z,99.99
2018-09-17T07:11:15.193Z,99.99
2018-09-17T07:12:23.828Z,99.99
2018-09-17T07:13:32.477Z,99.99
2018-09-17T07:14:41.123Z,99.99
2018-09-17T07:15:50.298Z,99.99
2018-09-17T07:16:58.932Z,99.99
2018-09-17T07:18:07.617Z,99.99
2018-09-17T07:19:16.486Z,99.99
2018-09-17T07:20:25.142Z,99.99
2018-09-17T07:21:33.790Z,99.99
2018-09-17T07:22:42.427Z,99.99
2018-09-17T07:23:51.068Z,99.52
2018-09-17T07:24:59.708Z,99.81
2018-09-17T07:26:08.358Z,99.04
2018-09-17T07:27:17.045Z,99.24
2018-09-17T07:28:25.909Z,98.43
2018-09-17T07:29:34.544Z,98.33
2018-09-17T07:30:43.196Z,97.66
2018-09-17T07:31:51.834Z,98.24
2018-09-17T07:33:00.483Z,98.24
2018-09-17T07:34:09.116Z,97.85
2018-09-17T07:35:17.768Z,97.37
2018-09-17T07:36:26.825Z,97.18
2018-09-17T07:37:35.322Z,96.47
2018-09-17T07:38:43.965Z,96.08
2018-09-17T07:39:52.613Z,96.27
2018-09-17T07:41:01.260Z,95.51
2018-09-17T07:42:10.002Z,95.51
2018-09-17T07:43:18.553Z,95.51
2018-09-17T07:44:27.195Z,94.89
2018-09-17T07:45:35.849Z,94.4
2018-09-17T07:46:44.490Z,94.5
2018-09-17T07:47:53.222Z,93.93
2018-09-17T07:49:01.781Z,93.35
2018-09-17T07:50:10.430Z,93.26
2018-09-17T07:51:19.070Z,93.21
2018-09-17T07:52:27.725Z,92.15
2018-09-17T07:53:36.371Z,91.67
2018-09-17T07:54:45.015Z,91.77
2018-09-17T07:55:53.656Z,91.1
2018-09-17T07:57:02.313Z,90.72
2018-09-17T07:58:10.957Z,90.67
2018-09-17T07:59:19.603Z,90.19
2018-09-17T08:00:28.241Z,90
2018-09-17T08:01:36.885Z,89.32
2018-09-17T08:02:45.543Z,89.51
2018-09-17T08:03:54.444Z,88.75
2018-09-17T08:05:03.092Z,88.22
2018-09-17T08:06:11.729Z,87.74
2018-09-17T08:07:20.385Z,87.64
2018-09-17T08:08:29.024Z,87.93
2018-09-17T08:09:37.673Z,87.93
2018-09-17T08:10:46.319Z,86.97
2018-09-17T08:11:54.963Z,86.58
2018-09-17T08:13:03.606Z,86.4
2018-09-17T08:14:12.255Z,85.82
2018-09-17T08:15:20.894Z,86.15
2018-09-17T08:16:29.545Z,85.77
2018-09-17T08:17:38.192Z,86.44
2018-09-17T08:18:46.841Z,86.54
2018-09-17T08:19:55.493Z,87.01
2018-09-17T08:21:04.396Z,86.34
2018-09-17T08:22:13.041Z,85.96
2018-09-17T08:23:21.686Z,85.96
2018-09-17T08:24:30.345Z,85.48
2018-09-17T08:25:39.057Z,85.58
2018-09-17T08:26:47.627Z,85.58
2018-09-17T08:27:56.535Z,86.34
2018-09-17T08:29:05.183Z,86.82
2018-09-17T08:30:13.824Z,86.72
2018-09-17T08:31:22.581Z,86.15
2018-09-17T08:32:31.117Z,85.86
2018-09-17T08:33:40.038Z,86.72
2018-09-17T08:34:48.678Z,87.11
2018-09-17T08:35:57.325Z,87.68
2018-09-17T08:37:06.232Z,87.68
2018-09-17T08:38:14.910Z,86.54
2018-09-17T08:39:23.530Z,86.92
2018-09-17T08:40:32.172Z,86.05
2018-09-17T08:41:40.816Z,85.77
2018-09-17T08:42:49.456Z,86.63
2018-09-17T08:43:58.106Z,87.3
2018-09-17T08:45:06.750Z,86.25
2018-09-17T08:46:15.397Z,84.23
2018-09-17T08:47:24.039Z,83.94
2018-09-17T08:48:32.696Z,83.94
2018-09-17T08:49:41.345Z,84.18
2018-09-17T08:50:50.255Z,83.41
2018-09-17T08:51:58.903Z,84.47
2018-09-17T08:53:07.601Z,86.19
2018-09-17T08:54:16.196Z,85.71
2018-09-17T08:55:24.843Z,86.1
2018-09-17T08:56:33.491Z,85.04
2018-09-17T08:57:42.132Z,84.08
2018-09-17T08:58:50.780Z,82.45
2018-09-17T08:59:59.424Z,82.68
2018-09-17T09:01:08.077Z,83.07
2018-09-17T09:02:16.714Z,82.49
2018-09-17T09:03:25.361Z,82.59
2018-09-17T09:04:34.007Z,83.16
2018-09-17T09:05:42.660Z,81.72
2018-09-17T09:06:51.298Z,81.34
2018-09-17T09:07:59.947Z,82.05
2018-09-17T09:09:08.595Z,81.48
2018-09-17T09:10:17.235Z,80.04
2018-09-17T09:11:25.884Z,79.36
2018-09-17T09:12:34.531Z,79.55
2018-09-17T09:13:43.180Z,78.98
2018-09-17T09:14:51.834Z,78.88
2018-09-17T09:16:00.474Z,78.98
2018-09-17T09:17:09.383Z,78.88
2018-09-17T09:18:18.032Z,78.44
2018-09-17T09:19:26.685Z,78.63
2018-09-17T09:20:35.593Z,78.92
2018-09-17T09:21:44.241Z,78.92
2018-09-17T09:22:53.147Z,78.83
2018-09-17T09:24:01.800Z,78.63
2018-09-17T09:25:10.443Z,77.67
2018-09-17T09:26:19.550Z,78.06
2018-09-17T09:27:28.441Z,77.67
2018-09-17T09:28:37.095Z,77.04
2018-09-17T09:29:46.011Z,77.04
2018-09-17T09:30:55.071Z,76.75
2018-09-17T09:32:03.652Z,76.75
2018-09-17T09:33:12.298Z,76.17
2018-09-17T09:34:20.949Z,75.79
2018-09-17T09:35:29.595Z,75.4
2018-09-17T09:36:38.242Z,76.65
2018-09-17T09:37:46.887Z,76.94
2018-09-17T09:38:55.869Z,77.71
2018-09-17T09:40:04.573Z,77.04
2018-09-17T09:41:13.218Z,75.88
2018-09-17T09:42:21.858Z,76.75
2018-09-17T09:43:30.509Z,78
2018-09-17T09:44:39.157Z,76.84
2018-09-17T09:45:47.807Z,76.84
2018-09-17T09:46:56.446Z,76.94
2018-09-17T09:48:05.098Z,76.75
2018-09-17T09:49:14.008Z,76.84
2018-09-17T09:50:22.670Z,75.98
2018-09-17T09:51:31.585Z,76.36
2018-09-17T09:52:40.566Z,75.79
2018-09-17T09:53:49.135Z,76.65
2018-09-17T09:54:57.781Z,76.78
2018-09-17T09:56:06.434Z,76.84
2018-09-17T09:57:15.078Z,76.75
2018-09-17T09:58:23.726Z,76.65
2018-09-17T09:59:32.385Z,76.07
2018-09-17T10:00:41.027Z,75.88
2018-09-17T10:01:49.670Z,74.44
2018-09-17T10:02:58.318Z,74.09
2018-09-17T10:04:06.964Z,74.67
2018-09-17T10:05:15.616Z,75.44
2018-09-17T10:06:24.525Z,75.24
2018-09-17T10:07:33.175Z,75.44
2018-09-17T10:08:41.817Z,75.15
2018-09-17T10:09:50.733Z,74.96
2018-09-17T10:10:59.388Z,75.15
2018-09-17T10:12:08.033Z,74.86
2018-09-17T10:13:16.685Z,73.8
2018-09-17T10:14:25.324Z,73.22
2018-09-17T10:15:33.983Z,72.74
2018-09-17T10:16:42.626Z,72.88
2018-09-17T10:17:51.276Z,72.3
2018-09-17T10:18:59.916Z,74.32
2018-09-17T10:20:08.576Z,76.15
2018-09-17T10:21:17.222Z,74.9
2018-09-17T10:22:25.875Z,76.25
2018-09-17T10:23:34.513Z,72.39
2018-09-17T10:24:43.165Z,71.72
2018-09-17T10:25:51.818Z,72.49
2018-09-17T10:27:00.465Z,72.01
2018-09-17T10:28:09.117Z,71.95
2018-09-17T10:29:17.760Z,70.7
2018-09-17T10:30:26.479Z,70.6
2018-09-17T10:31:35.167Z,70.31
2018-09-17T10:32:43.826Z,70.41
2018-09-17T10:33:52.728Z,70.41
2018-09-17T10:35:01.381Z,69.25
2018-09-17T10:36:10.026Z,69.35
2018-09-17T10:37:18.683Z,69.48
2018-09-17T10:38:27.324Z,69.77
2018-09-17T10:39:35.997Z,70.64
2018-09-17T10:40:44.625Z,69.48
2018-09-17T10:41:53.286Z,68.52
2018-09-17T10:43:02.194Z,68.23
2018-09-17T10:44:10.842Z,68.32
2018-09-17T10:45:19.493Z,67.84
2018-09-17T10:46:28.141Z,68.9
2018-09-17T10:47:36.799Z,68.42
2018-09-17T10:48:45.453Z,68.93
2018-09-17T10:49:54.370Z,68.26
2018-09-17T10:51:03.009Z,67.88
2018-09-17T10:52:11.668Z,66.43
2018-09-17T10:53:20.576Z,69.9
2018-09-17T10:54:29.230Z,70.19
2018-09-17T10:55:37.865Z,67.58
2018-09-17T10:56:46.528Z,64.72
2018-09-17T10:57:55.169Z,64.05
2018-09-17T10:59:03.827Z,63.18
2018-09-17T11:00:12.729Z,62.89
2018-09-17T11:01:21.381Z,63.37
2018-09-17T11:02:30.035Z,62.51
2018-09-17T11:03:38.687Z,62.82
2018-09-17T11:04:47.338Z,62.82
2018-09-17T11:05:55.979Z,63.12
2018-09-17T11:07:04.631Z,63.21
2018-09-17T11:08:13.326Z,62.63
2018-09-17T11:09:21.937Z,61.67
2018-09-17T11:10:30.581Z,61.57
2018-09-17T11:11:39.231Z,61.22
2018-09-17T11:12:47.882Z,60.35
2018-09-17T11:13:56.533Z,59.96
2018-09-17T11:15:05.179Z,59.77
2018-09-17T11:16:14.098Z,61.22
2018-09-17T11:17:23.153Z,61.51
2018-09-17T11:18:31.679Z,58.7
2018-09-17T11:19:40.377Z,58.32
2018-09-17T11:20:49.044Z,58.35
2018-09-17T11:21:57.978Z,57.96
2018-09-17T11:23:07.020Z,58.06
2018-09-17T11:24:15.674Z,57.87
2018-09-17T11:25:24.334Z,58.06
2018-09-17T11:26:32.984Z,57.38
2018-09-17T11:27:41.633Z,57.38
2018-09-17T11:28:50.512Z,56.73
2018-09-17T11:29:59.161Z,57.31
2018-09-17T11:31:08.076Z,56.35
2018-09-17T11:32:17.305Z,56.73
2018-09-17T11:33:25.958Z,57.03
2018-09-17T11:34:34.606Z,57.99
2018-09-17T11:35:43.269Z,56.73
2018-09-17T11:36:51.921Z,56.73
2018-09-17T11:38:00.836Z,58.37
2018-09-17T11:39:09.490Z,58.28
2018-09-17T11:40:18.166Z,58.35
2018-09-17T11:41:27.085Z,58.93
2018-09-17T11:42:35.730Z,57.87
2018-09-17T11:43:44.381Z,57.96
2018-09-17T11:44:53.033Z,58.15
2018-09-17T11:46:01.689Z,58.35
2018-09-17T11:47:10.336Z,58.06
2018-09-17T11:48:19.078Z,58.25
2018-09-17T11:49:27.671Z,58.15
2018-09-17T11:50:36.328Z,58.73
2018-09-17T11:51:44.974Z,58.64
2018-09-17T11:52:53.626Z,58.35
2018-09-17T11:54:02.316Z,58.06
2018-09-17T11:55:11.310Z,57.67
2018-09-17T11:56:20.219Z,57.38
2018-09-17T11:57:28.871Z,57.77
2018-09-17T11:58:37.520Z,57.87
2018-09-17T11:59:46.167Z,57.48
2018-09-17T12:00:54.829Z,57.12
2018-09-17T12:02:03.485Z,56.83
2018-09-17T12:03:12.431Z,57.21
2018-09-17T12:04:21.077Z,56.45
2018-09-17T12:05:29.734Z,57.21
2018-09-17T12:06:38.380Z,56.93
2018-09-17T12:07:47.034Z,57.41
2018-09-17T12:08:55.675Z,56.54
2018-09-17T12:10:04.334Z,56.71
2018-09-17T12:11:12.985Z,58.83
2018-09-17T12:12:21.898Z,58.93
2018-09-17T12:13:30.540Z,60.02
2018-09-17T12:14:39.199Z,57.38
2018-09-17T12:15:48.117Z,59.22
2018-09-17T12:16:56.768Z,58.37
2018-09-17T12:18:05.421Z,57.38
2018-09-17T12:19:14.061Z,56.9
2018-09-17T12:20:22.717Z,57.41
2018-09-17T12:21:31.364Z,56.35
2018-09-17T12:22:40.024Z,56.45
2018-09-17T12:23:48.945Z,56.35
2018-09-17T12:24:57.586Z,56.73
2018-09-17T12:26:06.251Z,58.18
2018-09-17T12:27:14.910Z,56.73
2018-09-17T12:28:23.553Z,56.45
2018-09-17T12:29:32.204Z,57.12
2018-09-17T12:30:40.850Z,56.83
2018-09-17T12:31:49.512Z,56.73
2018-09-17T12:32:58.173Z,57.31
2018-09-17T12:34:06.821Z,58.28
2018-09-17T12:35:15.470Z,58.18
2018-09-17T12:36:24.121Z,57.12
2018-09-17T12:37:32.790Z,57.12
2018-09-17T12:38:41.431Z,56.63
2018-09-17T12:39:50.091Z,55.77
2018-09-17T12:40:58.997Z,55.87
2018-09-17T12:42:07.656Z,55.57
2018-09-17T12:43:16.303Z,55.77
2018-09-17T12:44:24.956Z,55.6
2018-09-17T12:45:33.600Z,55.89
2018-09-17T12:46:42.264Z,56.95
2018-09-17T12:47:50.908Z,57.34
2018-09-17T12:48:59.612Z,56.09
2018-09-17T12:50:08.516Z,55.31
2018-09-17T12:51:17.174Z,55.7
2018-09-17T12:52:25.826Z,56.86
2018-09-17T12:53:34.479Z,58.12
2018-09-17T12:54:43.158Z,56.47
2018-09-17T12:55:51.774Z,55.7
2018-09-17T12:57:00.459Z,53.96
2018-09-17T12:58:09.642Z,53.86
2018-09-17T12:59:18.386Z,53.57
2018-09-17T13:00:27.192Z,53.77
2018-09-17T13:01:35.849Z,53.57
2018-09-17T13:02:44.553Z,53.19
2018-09-17T13:03:53.476Z,52.89
2018-09-17T13:05:02.432Z,51.95
2018-09-17T13:06:11.161Z,52.63
2018-09-17T13:07:19.811Z,52.24
2018-09-17T13:08:28.453Z,51.37
2018-09-17T13:09:37.116Z,50.98
2018-09-17T13:10:46.033Z,50.89
2018-09-17T13:11:54.686Z,50.89
2018-09-17T13:13:03.343Z,51.18
2018-09-17T13:14:11.983Z,51.47
2018-09-17T13:15:20.639Z,51.37
2018-09-17T13:16:29.283Z,52.24
2018-09-17T13:17:37.941Z,50.89
2018-09-17T13:18:46.582Z,50.02
2018-09-17T13:19:55.768Z,49.82
2018-09-17T13:21:04.416Z,49.82
2018-09-17T13:22:13.342Z,50.79
2018-09-17T13:23:21.983Z,51.28
2018-09-17T13:24:30.636Z,50.98
2018-09-17T13:25:39.286Z,51.37
2018-09-17T13:26:47.946Z,52.92
2018-09-17T13:27:56.745Z,51.18
2018-09-17T13:29:05.659Z,50.96
2018-09-17T13:30:14.307Z,51.25
2018-09-17T13:31:22.956Z,51.73
2018-09-17T13:32:31.617Z,53.57
2018-09-17T13:33:40.262Z,55.51
2018-09-17T13:34:48.919Z,53.67
2018-09-17T13:35:57.557Z,53.38
2018-09-17T13:37:06.485Z,52.7
2018-09-17T13:38:15.136Z,52.12
2018-09-17T13:39:23.791Z,52.31
2018-09-17T13:40:32.434Z,50.76
2018-09-17T13:41:41.094Z,50.28
2018-09-17T13:42:49.748Z,50.48
2018-09-17T13:43:58.665Z,51.06
2018-09-17T13:45:07.327Z,51.15
2018-09-17T13:46:15.976Z,50.98
2018-09-17T13:47:24.612Z,52.8
2018-09-17T13:48:33.279Z,51.83
2018-09-17T13:49:42.226Z,50.96
2018-09-17T13:50:51.126Z,50.5
2018-09-17T13:51:59.784Z,51.54
2018-09-17T13:53:08.959Z,53.09
2018-09-17T13:54:18.016Z,52.51
2018-09-17T13:55:26.967Z,53.02
2018-09-17T13:56:35.601Z,53.5
2018-09-17T13:57:44.255Z,53.21
2018-09-17T13:58:53.174Z,52.05
2018-09-17T14:00:02.375Z,50.79
2018-09-17T14:01:11.058Z,49.82
2018-09-17T14:02:19.964Z,49.63
2018-09-17T14:03:28.917Z,49.24
2018-09-17T14:04:37.823Z,49.17
2018-09-17T14:05:46.518Z,48.2
2018-09-17T14:06:55.207Z,48.39
2018-09-17T14:08:03.835Z,47.91
2018-09-17T14:09:13.052Z,47.52
2018-09-17T14:10:21.817Z,47.81
2018-09-17T14:11:30.372Z,46.84
2018-09-17T14:12:39.375Z,46.46
2018-09-17T14:13:48.107Z,45.2
2018-09-17T14:14:57.199Z,46.46
2018-09-17T14:16:06.393Z,46.36
2018-09-17T14:17:15.040Z,46.39
2018-09-17T14:18:23.720Z,46.19
2018-09-17T14:19:32.374Z,48.39
2018-09-17T14:20:41.025Z,47.91
2018-09-17T14:21:49.779Z,48.88
2018-09-17T14:22:58.538Z,49.27
2018-09-17T14:24:07.563Z,50.24
2018-09-17T14:25:16.218Z,50.14
2018-09-17T14:26:24.981Z,50.33
2018-09-17T14:27:33.589Z,49.75
2018-09-17T14:28:42.198Z,49.75
2018-09-17T14:29:50.832Z,48.79
2018-09-17T14:30:59.835Z,48.47
2018-09-17T14:32:09.095Z,48.01
2018-09-17T14:33:18.032Z,48.37
2018-09-17T14:34:26.664Z,48.11
2018-09-17T14:35:35.859Z,47.52
2018-09-17T14:36:44.363Z,47.72
2018-09-17T14:37:53.015Z,47.91
2018-09-17T14:39:01.667Z,48.2
2018-09-17T14:40:10.590Z,48.22
2018-09-17T14:41:19.787Z,48.39
2018-09-17T14:42:28.436Z,48.59
2018-09-17T14:43:37.184Z,48.88
2018-09-17T14:44:46.183Z,49.56
2018-09-17T14:45:55.107Z,51.59